This is the latest recevied weather packets stored in our database for station/object KD5BIG-13. If no packets are shown the sender has not sent any weather packets the latest 10 day(s).
| Time | Temp. | Humidity | Pressure | Rain* | Wind** | Luminosity | Snow |
|---|---|---|---|---|---|---|---|
| 1777830196 | 23.89° C | 43% | 1026 hPa | 0 mm | - | 1044 W/m² | - |
| 1777829891 | 23.89° C | 40% | 1025.9 hPa | 0 mm | - | 1034 W/m² | - |
| 1777829587 | 23.89° C | 42% | 1026 hPa | 0 mm | - | 925 W/m² | - |
| 1777829284 | 23.89° C | 46% | 1026 hPa | 0 mm | - | 761 W/m² | - |
| 1777828982 | 23.89° C | 41% | 1026.1 hPa | 0 mm | - | 918 W/m² | - |
| 1777828678 | 23.89° C | 45% | 1026.3 hPa | 0 mm | - | 982 W/m² | - |
| 1777828375 | 23.89° C | 42% | 1026.3 hPa | 0 mm | - | 1031 W/m² | - |
| 1777828072 | 23.33° C | 44% | 1026.3 hPa | 0 mm | - | 1016 W/m² | - |
| 1777827769 | 23.33° C | 41% | 1026.3 hPa | 0 mm | - | 1008 W/m² | - |
| 1777827466 | 22.78° C | 52% | 1026.3 hPa | 0 mm | - | 1001 W/m² | - |
| 1777827163 | 23.33° C | 41% | 1026.2 hPa | 0 mm | - | 994 W/m² | - |
| 1777826859 | 23.33° C | 42% | 1026.3 hPa | 0 mm | - | 987 W/m² | - |
| 1777826557 | 23.33° C | 43% | 1026.2 hPa | 0 mm | - | 978 W/m² | - |
| 1777826252 | 22.78° C | 52% | 1026.5 hPa | 0 mm | - | 970 W/m² | - |
| 1777825951 | 22.78° C | 48% | 1026.5 hPa | 0 mm | - | 962 W/m² | - |
| 1777825647 | 22.78° C | 45% | 1026.5 hPa | 0 mm | - | 952 W/m² | - |
| 1777825346 | 22.78° C | 45% | 1026.6 hPa | 0 mm | - | 943 W/m² | - |
| 1777825042 | 22.78° C | 52% | 1026.7 hPa | 0 mm | - | 931 W/m² | - |
| 1777824738 | 22.78° C | 45% | 1026.7 hPa | 0 mm | - | 918 W/m² | - |
| 1777824435 | 22.78° C | 46% | 1026.8 hPa | 0 mm | - | 905 W/m² | - |
| 1777824131 | 22.78° C | 42% | 1026.8 hPa | 0 mm | - | 891 W/m² | - |
| 1777823827 | 22.78° C | 48% | 1027 hPa | 0 mm | - | 879 W/m² | - |
| 1777823525 | 22.78° C | 48% | 1027 hPa | 0 mm | - | 865 W/m² | - |
| 1777823221 | 22.78° C | 49% | 1027.1 hPa | 0 mm | - | 850 W/m² | - |
| 1777822920 | 22.22° C | 48% | 1026.9 hPa | 0 mm | - | 838 W/m² | - |
* Rain latest hour (hover to see other rain measurements)
** Current wind speed in m/s (hover to see current wind gust speed)